sensor_id;sensor_type;location;lat;lon;timestamp;P1;durP1;ratioP1;P2;durP2;ratioP2
78143;SDS011;67394;52.522;13.622;2023-04-28T00:01:17;8.80;;;5.50;;
78143;SDS011;67394;52.522;13.622;2023-04-28T00:03:43;10.35;;;5.63;;
78143;SDS011;67394;52.522;13.622;2023-04-28T00:06:10;10.68;;;5.78;;
78143;SDS011;67394;52.522;13.622;2023-04-28T00:08:36;9.27;;;5.88;;
78143;SDS011;67394;52.522;13.622;2023-04-28T00:11:03;9.05;;;5.97;;
78143;SDS011;67394;52.522;13.622;2023-04-28T00:13:31;10.00;;;5.97;;
78143;SDS011;67394;52.522;13.622;2023-04-28T00:15:57;10.15;;;6.28;;
78143;SDS011;67394;52.522;13.622;2023-04-28T00:18:24;9.70;;;5.18;;
78143;SDS011;67394;52.522;13.622;2023-04-28T00:20:50;9.40;;;5.68;;
78143;SDS011;67394;52.522;13.622;2023-04-28T00:23:16;7.47;;;5.68;;
78143;SDS011;67394;52.522;13.622;2023-04-28T00:25:43;9.05;;;5.45;;
78143;SDS011;67394;52.522;13.622;2023-04-28T00:28:09;8.10;;;5.57;;
78143;SDS011;67394;52.522;13.622;2023-04-28T00:30:36;11.65;;;5.25;;
78143;SDS011;67394;52.522;13.622;2023-04-28T00:33:03;9.27;;;5.22;;
78143;SDS011;67394;52.522;13.622;2023-04-28T00:35:39;8.93;;;5.35;;
78143;SDS011;67394;52.522;13.622;2023-04-28T00:38:05;10.23;;;5.22;;
78143;SDS011;67394;52.522;13.622;2023-04-28T00:40:32;9.80;;;6.22;;
78143;SDS011;67394;52.522;13.622;2023-04-28T00:42:59;9.57;;;5.32;;
78143;SDS011;67394;52.522;13.622;2023-04-28T00:45:26;7.68;;;5.30;;
78143;SDS011;67394;52.522;13.622;2023-04-28T00:47:52;9.77;;;5.65;;
78143;SDS011;67394;52.522;13.622;2023-04-28T00:52:46;9.00;;;5.45;;
78143;SDS011;67394;52.522;13.622;2023-04-28T00:55:22;9.18;;;5.13;;
78143;SDS011;67394;52.522;13.622;2023-04-28T00:57:50;7.22;;;4.80;;
78143;SDS011;67394;52.522;13.622;2023-04-28T01:00:18;9.52;;;5.60;;
78143;SDS011;67394;52.522;13.622;2023-04-28T01:02:45;8.93;;;5.25;;
78143;SDS011;67394;52.522;13.622;2023-04-28T01:05:12;9.10;;;5.55;;
78143;SDS011;67394;52.522;13.622;2023-04-28T01:07:40;9.35;;;5.53;;
78143;SDS011;67394;52.522;13.622;2023-04-28T01:10:06;6.95;;;5.07;;
78143;SDS011;67394;52.522;13.622;2023-04-28T01:12:33;8.65;;;5.03;;
78143;SDS011;67394;52.522;13.622;2023-04-28T01:14:59;6.55;;;4.88;;
78143;SDS011;67394;52.522;13.622;2023-04-28T01:17:26;8.43;;;5.00;;
78143;SDS011;67394;52.522;13.622;2023-04-28T01:19:53;7.72;;;4.90;;
78143;SDS011;67394;52.522;13.622;2023-04-28T01:22:20;8.65;;;5.00;;
78143;SDS011;67394;52.522;13.622;2023-04-28T01:27:13;8.57;;;4.55;;
78143;SDS011;67394;52.522;13.622;2023-04-28T01:29:39;8.88;;;4.57;;
78143;SDS011;67394;52.522;13.622;2023-04-28T01:32:06;8.20;;;5.45;;
78143;SDS011;67394;52.522;13.622;2023-04-28T01:34:32;8.82;;;5.63;;
78143;SDS011;67394;52.522;13.622;2023-04-28T01:36:58;9.05;;;5.18;;
78143;SDS011;67394;52.522;13.622;2023-04-28T01:39:25;9.13;;;5.13;;
78143;SDS011;67394;52.522;13.622;2023-04-28T01:41:51;9.20;;;5.55;;
78143;SDS011;67394;52.522;13.622;2023-04-28T01:44:17;7.40;;;4.65;;
78143;SDS011;67394;52.522;13.622;2023-04-28T01:46:44;7.72;;;5.15;;
78143;SDS011;67394;52.522;13.622;2023-04-28T01:49:11;8.60;;;5.03;;
78143;SDS011;67394;52.522;13.622;2023-04-28T01:51:37;7.30;;;5.07;;
78143;SDS011;67394;52.522;13.622;2023-04-28T01:54:03;11.65;;;4.90;;
78143;SDS011;67394;52.522;13.622;2023-04-28T01:56:29;7.72;;;4.47;;
78143;SDS011;67394;52.522;13.622;2023-04-28T01:58:56;10.85;;;5.07;;
78143;SDS011;67394;52.522;13.622;2023-04-28T02:01:22;8.93;;;4.70;;
78143;SDS011;67394;52.522;13.622;2023-04-28T02:03:49;8.15;;;5.10;;
78143;SDS011;67394;52.522;13.622;2023-04-28T02:06:15;7.63;;;4.13;;
78143;SDS011;67394;52.522;13.622;2023-04-28T02:08:41;6.05;;;4.38;;
78143;SDS011;67394;52.522;13.622;2023-04-28T02:11:08;17.48;;;5.47;;
78143;SDS011;67394;52.522;13.622;2023-04-28T02:13:37;6.93;;;4.78;;
78143;SDS011;67394;52.522;13.622;2023-04-28T02:16:03;7.50;;;4.60;;
78143;SDS011;67394;52.522;13.622;2023-04-28T02:18:28;8.27;;;4.73;;
78143;SDS011;67394;52.522;13.622;2023-04-28T02:20:55;6.93;;;4.57;;
78143;SDS011;67394;52.522;13.622;2023-04-28T02:23:21;6.95;;;5.10;;
78143;SDS011;67394;52.522;13.622;2023-04-28T02:25:47;6.72;;;5.05;;
78143;SDS011;67394;52.522;13.622;2023-04-28T02:28:14;7.65;;;4.65;;
78143;SDS011;67394;52.522;13.622;2023-04-28T02:30:40;6.07;;;3.90;;
78143;SDS011;67394;52.522;13.622;2023-04-28T02:33:06;8.45;;;4.80;;
78143;SDS011;67394;52.522;13.622;2023-04-28T02:35:33;6.93;;;4.50;;
78143;SDS011;67394;52.522;13.622;2023-04-28T02:38:12;9.05;;;4.45;;
78143;SDS011;67394;52.522;13.622;2023-04-28T02:40:39;7.47;;;4.63;;
78143;SDS011;67394;52.522;13.622;2023-04-28T02:43:05;8.68;;;4.45;;
78143;SDS011;67394;52.522;13.622;2023-04-28T02:45:31;5.88;;;4.22;;
78143;SDS011;67394;52.522;13.622;2023-04-28T02:47:58;7.75;;;4.68;;
78143;SDS011;67394;52.522;13.622;2023-04-28T02:50:24;6.20;;;4.13;;
78143;SDS011;67394;52.522;13.622;2023-04-28T02:52:50;6.75;;;3.97;;
78143;SDS011;67394;52.522;13.622;2023-04-28T02:55:17;8.38;;;4.25;;
78143;SDS011;67394;52.522;13.622;2023-04-28T02:57:43;8.13;;;4.55;;
78143;SDS011;67394;52.522;13.622;2023-04-28T03:00:09;8.25;;;4.25;;
78143;SDS011;67394;52.522;13.622;2023-04-28T03:02:36;6.75;;;4.15;;
78143;SDS011;67394;52.522;13.622;2023-04-28T03:05:03;7.10;;;4.10;;
78143;SDS011;67394;52.522;13.622;2023-04-28T03:07:42;7.75;;;3.92;;
78143;SDS011;67394;52.522;13.622;2023-04-28T03:10:08;7.95;;;4.47;;
78143;SDS011;67394;52.522;13.622;2023-04-28T03:12:35;6.53;;;3.90;;
78143;SDS011;67394;52.522;13.622;2023-04-28T03:15:01;8.30;;;4.22;;
78143;SDS011;67394;52.522;13.622;2023-04-28T03:17:28;7.57;;;4.40;;
78143;SDS011;67394;52.522;13.622;2023-04-28T03:19:54;6.45;;;3.95;;
78143;SDS011;67394;52.522;13.622;2023-04-28T03:22:20;7.97;;;3.92;;
78143;SDS011;67394;52.522;13.622;2023-04-28T03:24:47;8.30;;;4.35;;
78143;SDS011;67394;52.522;13.622;2023-04-28T03:27:13;8.98;;;4.47;;
78143;SDS011;67394;52.522;13.622;2023-04-28T03:29:39;7.28;;;3.70;;
78143;SDS011;67394;52.522;13.622;2023-04-28T03:32:06;6.90;;;3.90;;
78143;SDS011;67394;52.522;13.622;2023-04-28T03:34:32;7.80;;;4.28;;
78143;SDS011;67394;52.522;13.622;2023-04-28T03:36:58;8.43;;;4.25;;
78143;SDS011;67394;52.522;13.622;2023-04-28T03:39:25;8.85;;;3.85;;
78143;SDS011;67394;52.522;13.622;2023-04-28T03:41:51;6.55;;;4.10;;
78143;SDS011;67394;52.522;13.622;2023-04-28T03:44:17;8.38;;;4.50;;
78143;SDS011;67394;52.522;13.622;2023-04-28T03:46:44;5.93;;;3.95;;
78143;SDS011;67394;52.522;13.622;2023-04-28T03:49:10;7.80;;;4.53;;
78143;SDS011;67394;52.522;13.622;2023-04-28T03:51:36;8.82;;;3.85;;
78143;SDS011;67394;52.522;13.622;2023-04-28T03:54:03;7.53;;;4.32;;
78143;SDS011;67394;52.522;13.622;2023-04-28T03:56:29;6.28;;;3.97;;
78143;SDS011;67394;52.522;13.622;2023-04-28T03:58:56;6.53;;;4.18;;
78143;SDS011;67394;52.522;13.622;2023-04-28T04:01:23;7.15;;;3.85;;
78143;SDS011;67394;52.522;13.622;2023-04-28T04:03:51;7.57;;;3.65;;
78143;SDS011;67394;52.522;13.622;2023-04-28T04:06:18;7.05;;;3.80;;
78143;SDS011;67394;52.522;13.622;2023-04-28T04:08:44;5.78;;;3.53;;
78143;SDS011;67394;52.522;13.622;2023-04-28T04:11:11;5.80;;;3.65;;
78143;SDS011;67394;52.522;13.622;2023-04-28T04:13:37;5.80;;;3.70;;
78143;SDS011;67394;52.522;13.622;2023-04-28T04:16:04;8.05;;;3.70;;
78143;SDS011;67394;52.522;13.622;2023-04-28T04:18:34;6.05;;;3.58;;
78143;SDS011;67394;52.522;13.622;2023-04-28T04:21:00;5.43;;;3.55;;
78143;SDS011;67394;52.522;13.622;2023-04-28T04:23:26;6.30;;;3.33;;
78143;SDS011;67394;52.522;13.622;2023-04-28T04:25:53;6.40;;;3.90;;
78143;SDS011;67394;52.522;13.622;2023-04-28T04:28:20;5.55;;;3.50;;
78143;SDS011;67394;52.522;13.622;2023-04-28T04:30:49;6.28;;;4.20;;
78143;SDS011;67394;52.522;13.622;2023-04-28T04:33:17;7.03;;;3.83;;
78143;SDS011;67394;52.522;13.622;2023-04-28T04:35:46;6.40;;;4.05;;
78143;SDS011;67394;52.522;13.622;2023-04-28T04:38:14;7.70;;;4.18;;
78143;SDS011;67394;52.522;13.622;2023-04-28T04:40:41;6.13;;;3.42;;
78143;SDS011;67394;52.522;13.622;2023-04-28T04:43:07;5.95;;;3.50;;
78143;SDS011;67394;52.522;13.622;2023-04-28T04:45:33;6.78;;;3.30;;
78143;SDS011;67394;52.522;13.622;2023-04-28T04:48:02;8.70;;;3.63;;
78143;SDS011;67394;52.522;13.622;2023-04-28T04:50:28;8.82;;;4.03;;
78143;SDS011;67394;52.522;13.622;2023-04-28T04:52:55;6.55;;;3.85;;
78143;SDS011;67394;52.522;13.622;2023-04-28T04:55:21;6.93;;;3.85;;
78143;SDS011;67394;52.522;13.622;2023-04-28T04:57:48;8.13;;;4.35;;
78143;SDS011;67394;52.522;13.622;2023-04-28T05:00:14;8.90;;;3.97;;
78143;SDS011;67394;52.522;13.622;2023-04-28T05:02:41;7.20;;;3.83;;
78143;SDS011;67394;52.522;13.622;2023-04-28T05:05:07;10.40;;;4.57;;
78143;SDS011;67394;52.522;13.622;2023-04-28T05:07:47;6.32;;;4.22;;
78143;SDS011;67394;52.522;13.622;2023-04-28T05:10:13;8.50;;;4.35;;
78143;SDS011;67394;52.522;13.622;2023-04-28T05:12:40;8.25;;;4.40;;
78143;SDS011;67394;52.522;13.622;2023-04-28T05:15:06;10.10;;;4.35;;
78143;SDS011;67394;52.522;13.622;2023-04-28T05:17:33;7.85;;;4.35;;
78143;SDS011;67394;52.522;13.622;2023-04-28T05:19:59;6.45;;;3.90;;
78143;SDS011;67394;52.522;13.622;2023-04-28T05:22:26;7.00;;;4.55;;
78143;SDS011;67394;52.522;13.622;2023-04-28T05:24:52;8.15;;;4.20;;
78143;SDS011;67394;52.522;13.622;2023-04-28T05:27:18;9.57;;;4.60;;
78143;SDS011;67394;52.522;13.622;2023-04-28T05:29:45;7.25;;;3.92;;
78143;SDS011;67394;52.522;13.622;2023-04-28T05:32:12;6.22;;;3.90;;
78143;SDS011;67394;52.522;13.622;2023-04-28T05:37:05;9.00;;;4.53;;
78143;SDS011;67394;52.522;13.622;2023-04-28T05:39:31;7.72;;;5.30;;
78143;SDS011;67394;52.522;13.622;2023-04-28T05:41:57;7.15;;;4.55;;
78143;SDS011;67394;52.522;13.622;2023-04-28T05:44:24;8.88;;;4.00;;
78143;SDS011;67394;52.522;13.622;2023-04-28T05:46:50;7.85;;;4.13;;
78143;SDS011;67394;52.522;13.622;2023-04-28T05:51:44;6.18;;;3.70;;
78143;SDS011;67394;52.522;13.622;2023-04-28T05:54:10;7.38;;;4.32;;
78143;SDS011;67394;52.522;13.622;2023-04-28T05:56:36;6.28;;;3.55;;
78143;SDS011;67394;52.522;13.622;2023-04-28T05:59:03;4.97;;;3.40;;
78143;SDS011;67394;52.522;13.622;2023-04-28T06:01:30;5.90;;;3.50;;
78143;SDS011;67394;52.522;13.622;2023-04-28T06:03:57;7.90;;;3.65;;
78143;SDS011;67394;52.522;13.622;2023-04-28T06:06:24;6.03;;;3.65;;
78143;SDS011;67394;52.522;13.622;2023-04-28T06:08:51;5.45;;;3.40;;
78143;SDS011;67394;52.522;13.622;2023-04-28T06:11:18;5.55;;;3.80;;
78143;SDS011;67394;52.522;13.622;2023-04-28T06:13:44;8.80;;;3.72;;
78143;SDS011;67394;52.522;13.622;2023-04-28T06:16:11;6.10;;;3.17;;
78143;SDS011;67394;52.522;13.622;2023-04-28T06:18:37;8.70;;;3.60;;
78143;SDS011;67394;52.522;13.622;2023-04-28T06:21:04;7.38;;;3.53;;
78143;SDS011;67394;52.522;13.622;2023-04-28T06:23:30;6.05;;;3.88;;
78143;SDS011;67394;52.522;13.622;2023-04-28T06:25:56;7.25;;;3.33;;
78143;SDS011;67394;52.522;13.622;2023-04-28T06:28:23;7.35;;;4.13;;
78143;SDS011;67394;52.522;13.622;2023-04-28T06:30:49;6.28;;;3.63;;
78143;SDS011;67394;52.522;13.622;2023-04-28T06:33:16;8.00;;;3.72;;
78143;SDS011;67394;52.522;13.622;2023-04-28T06:35:42;9.93;;;4.18;;
78143;SDS011;67394;52.522;13.622;2023-04-28T06:38:08;5.05;;;3.50;;
78143;SDS011;67394;52.522;13.622;2023-04-28T06:40:35;8.20;;;3.97;;
78143;SDS011;67394;52.522;13.622;2023-04-28T06:43:01;5.75;;;3.28;;
78143;SDS011;67394;52.522;13.622;2023-04-28T06:45:28;6.25;;;3.58;;
78143;SDS011;67394;52.522;13.622;2023-04-28T06:47:54;9.00;;;3.95;;
78143;SDS011;67394;52.522;13.622;2023-04-28T06:50:21;10.27;;;3.75;;
78143;SDS011;67394;52.522;13.622;2023-04-28T06:52:48;9.80;;;3.50;;
78143;SDS011;67394;52.522;13.622;2023-04-28T06:55:15;6.07;;;3.47;;
78143;SDS011;67394;52.522;13.622;2023-04-28T07:00:09;6.80;;;3.88;;
78143;SDS011;67394;52.522;13.622;2023-04-28T07:02:36;7.18;;;3.80;;
78143;SDS011;67394;52.522;13.622;2023-04-28T07:05:03;7.93;;;3.40;;
78143;SDS011;67394;52.522;13.622;2023-04-28T07:07:29;8.85;;;3.63;;
78143;SDS011;67394;52.522;13.622;2023-04-28T07:09:56;5.30;;;3.40;;
78143;SDS011;67394;52.522;13.622;2023-04-28T07:12:22;7.85;;;3.80;;
78143;SDS011;67394;52.522;13.622;2023-04-28T07:14:49;8.25;;;3.80;;
78143;SDS011;67394;52.522;13.622;2023-04-28T07:17:15;7.85;;;3.58;;
78143;SDS011;67394;52.522;13.622;2023-04-28T07:19:41;7.68;;;3.50;;
78143;SDS011;67394;52.522;13.622;2023-04-28T07:22:08;5.80;;;3.22;;
78143;SDS011;67394;52.522;13.622;2023-04-28T07:24:37;4.50;;;3.00;;
78143;SDS011;67394;52.522;13.622;2023-04-28T07:27:03;4.85;;;3.10;;
78143;SDS011;67394;52.522;13.622;2023-04-28T07:29:29;8.20;;;3.78;;
78143;SDS011;67394;52.522;13.622;2023-04-28T07:31:56;6.25;;;3.88;;
78143;SDS011;67394;52.522;13.622;2023-04-28T07:34:22;7.68;;;3.90;;
78143;SDS011;67394;52.522;13.622;2023-04-28T07:36:48;10.35;;;4.03;;
78143;SDS011;67394;52.522;13.622;2023-04-28T07:39:15;7.20;;;3.72;;
78143;SDS011;67394;52.522;13.622;2023-04-28T07:41:41;5.57;;;3.67;;
78143;SDS011;67394;52.522;13.622;2023-04-28T07:44:07;5.97;;;3.90;;
78143;SDS011;67394;52.522;13.622;2023-04-28T07:46:34;6.47;;;3.55;;
78143;SDS011;67394;52.522;13.622;2023-04-28T07:49:00;5.28;;;3.60;;
78143;SDS011;67394;52.522;13.622;2023-04-28T07:51:30;9.30;;;3.60;;
78143;SDS011;67394;52.522;13.622;2023-04-28T07:53:56;6.03;;;3.28;;
78143;SDS011;67394;52.522;13.622;2023-04-28T07:56:23;6.38;;;3.05;;
78143;SDS011;67394;52.522;13.622;2023-04-28T08:01:16;6.20;;;3.80;;
78143;SDS011;67394;52.522;13.622;2023-04-28T08:03:43;7.68;;;4.18;;
78143;SDS011;67394;52.522;13.622;2023-04-28T08:06:09;6.75;;;3.65;;
78143;SDS011;67394;52.522;13.622;2023-04-28T08:08:39;6.60;;;3.35;;
78143;SDS011;67394;52.522;13.622;2023-04-28T08:11:05;7.50;;;3.80;;
78143;SDS011;67394;52.522;13.622;2023-04-28T08:13:32;6.35;;;4.00;;
78143;SDS011;67394;52.522;13.622;2023-04-28T08:15:59;7.28;;;3.50;;
78143;SDS011;67394;52.522;13.622;2023-04-28T08:18:26;7.10;;;3.70;;
78143;SDS011;67394;52.522;13.622;2023-04-28T08:20:53;7.63;;;3.42;;
78143;SDS011;67394;52.522;13.622;2023-04-28T08:23:19;6.50;;;3.42;;
78143;SDS011;67394;52.522;13.622;2023-04-28T08:25:46;6.65;;;3.85;;
78143;SDS011;67394;52.522;13.622;2023-04-28T08:28:12;7.40;;;3.80;;
78143;SDS011;67394;52.522;13.622;2023-04-28T08:30:39;4.88;;;3.25;;
78143;SDS011;67394;52.522;13.622;2023-04-28T08:33:05;8.93;;;3.78;;
78143;SDS011;67394;52.522;13.622;2023-04-28T08:35:32;5.32;;;3.60;;
78143;SDS011;67394;52.522;13.622;2023-04-28T08:37:59;4.88;;;3.35;;
78143;SDS011;67394;52.522;13.622;2023-04-28T08:40:25;6.25;;;3.75;;
78143;SDS011;67394;52.522;13.622;2023-04-28T08:42:51;5.45;;;3.67;;
78143;SDS011;67394;52.522;13.622;2023-04-28T08:45:20;6.38;;;3.58;;
78143;SDS011;67394;52.522;13.622;2023-04-28T08:47:49;6.50;;;3.38;;
78143;SDS011;67394;52.522;13.622;2023-04-28T08:50:20;6.13;;;3.88;;
78143;SDS011;67394;52.522;13.622;2023-04-28T08:52:47;5.47;;;3.55;;
78143;SDS011;67394;52.522;13.622;2023-04-28T08:55:13;5.45;;;3.20;;
78143;SDS011;67394;52.522;13.622;2023-04-28T09:00:11;5.30;;;3.38;;
78143;SDS011;67394;52.522;13.622;2023-04-28T09:02:38;5.60;;;3.72;;
78143;SDS011;67394;52.522;13.622;2023-04-28T09:05:05;9.15;;;3.90;;
78143;SDS011;67394;52.522;13.622;2023-04-28T09:07:33;7.78;;;4.20;;
78143;SDS011;67394;52.522;13.622;2023-04-28T09:12:43;6.13;;;3.47;;
78143;SDS011;67394;52.522;13.622;2023-04-28T09:15:09;6.53;;;4.22;;
78143;SDS011;67394;52.522;13.622;2023-04-28T09:17:57;6.70;;;4.10;;
78143;SDS011;67394;52.522;13.622;2023-04-28T09:20:26;7.20;;;3.80;;
78143;SDS011;67394;52.522;13.622;2023-04-28T09:22:56;8.88;;;4.15;;
78143;SDS011;67394;52.522;13.622;2023-04-28T09:28:32;4.97;;;3.60;;
78143;SDS011;67394;52.522;13.622;2023-04-28T09:31:00;7.97;;;4.43;;
78143;SDS011;67394;52.522;13.622;2023-04-28T09:33:27;6.05;;;4.00;;
78143;SDS011;67394;52.522;13.622;2023-04-28T09:35:54;4.85;;;3.50;;
78143;SDS011;67394;52.522;13.622;2023-04-28T09:38:21;5.75;;;3.67;;
78143;SDS011;67394;52.522;13.622;2023-04-28T09:43:25;5.32;;;3.72;;
78143;SDS011;67394;52.522;13.622;2023-04-28T09:45:57;6.88;;;4.00;;
78143;SDS011;67394;52.522;13.622;2023-04-28T09:48:34;6.47;;;4.03;;
78143;SDS011;67394;52.522;13.622;2023-04-28T09:51:02;6.05;;;3.67;;
78143;SDS011;67394;52.522;13.622;2023-04-28T09:53:30;9.52;;;4.10;;
78143;SDS011;67394;52.522;13.622;2023-04-28T09:55:57;6.72;;;4.30;;
78143;SDS011;67394;52.522;13.622;2023-04-28T09:58:25;8.07;;;4.53;;
78143;SDS011;67394;52.522;13.622;2023-04-28T10:00:54;6.70;;;4.40;;
78143;SDS011;67394;52.522;13.622;2023-04-28T10:03:22;7.78;;;4.70;;
78143;SDS011;67394;52.522;13.622;2023-04-28T10:05:55;8.10;;;4.53;;
78143;SDS011;67394;52.522;13.622;2023-04-28T10:08:23;7.55;;;4.72;;
78143;SDS011;67394;52.522;13.622;2023-04-28T10:10:50;11.40;;;5.00;;
78143;SDS011;67394;52.522;13.622;2023-04-28T10:13:17;5.38;;;4.40;;
78143;SDS011;67394;52.522;13.622;2023-04-28T10:15:44;9.25;;;5.20;;
78143;SDS011;67394;52.522;13.622;2023-04-28T10:18:14;8.15;;;4.50;;
78143;SDS011;67394;52.522;13.622;2023-04-28T10:20:41;8.52;;;4.80;;
78143;SDS011;67394;52.522;13.622;2023-04-28T10:26:18;5.93;;;4.10;;
78143;SDS011;67394;52.522;13.622;2023-04-28T10:31:18;5.78;;;4.22;;
78143;SDS011;67394;52.522;13.622;2023-04-28T10:33:47;5.72;;;4.00;;
78143;SDS011;67394;52.522;13.622;2023-04-28T10:39:16;8.38;;;4.60;;
78143;SDS011;67394;52.522;13.622;2023-04-28T10:41:43;7.10;;;4.53;;
78143;SDS011;67394;52.522;13.622;2023-04-28T11:00:41;8.98;;;4.95;;
78143;SDS011;67394;52.522;13.622;2023-04-28T11:03:08;6.93;;;4.97;;
78143;SDS011;67394;52.522;13.622;2023-04-28T11:08:43;6.40;;;4.40;;
78143;SDS011;67394;52.522;13.622;2023-04-28T11:11:10;6.00;;;4.07;;
78143;SDS011;67394;52.522;13.622;2023-04-28T11:13:37;7.13;;;4.00;;
78143;SDS011;67394;52.522;13.622;2023-04-28T11:16:07;9.50;;;4.88;;
78143;SDS011;67394;52.522;13.622;2023-04-28T11:18:49;7.43;;;4.78;;
78143;SDS011;67394;52.522;13.622;2023-04-28T11:21:21;9.57;;;5.30;;
78143;SDS011;67394;52.522;13.622;2023-04-28T11:23:49;8.65;;;5.47;;
78143;SDS011;67394;52.522;13.622;2023-04-28T11:26:17;8.35;;;4.97;;
78143;SDS011;67394;52.522;13.622;2023-04-28T11:28:53;6.45;;;5.05;;
78143;SDS011;67394;52.522;13.622;2023-04-28T11:31:23;11.50;;;5.05;;
78143;SDS011;67394;52.522;13.622;2023-04-28T11:33:52;7.30;;;5.30;;
78143;SDS011;67394;52.522;13.622;2023-04-28T11:36:22;11.02;;;4.82;;
78143;SDS011;67394;52.522;13.622;2023-04-28T11:38:51;9.38;;;5.20;;
78143;SDS011;67394;52.522;13.622;2023-04-28T11:41:17;9.05;;;4.60;;
78143;SDS011;67394;52.522;13.622;2023-04-28T11:43:44;7.35;;;5.30;;
78143;SDS011;67394;52.522;13.622;2023-04-28T11:46:16;9.23;;;5.07;;
78143;SDS011;67394;52.522;13.622;2023-04-28T11:48:43;10.35;;;5.70;;
78143;SDS011;67394;52.522;13.622;2023-04-28T11:51:26;9.27;;;5.55;;
78143;SDS011;67394;52.522;13.622;2023-04-28T11:53:58;8.52;;;5.25;;
78143;SDS011;67394;52.522;13.622;2023-04-28T11:59:01;7.30;;;5.22;;
78143;SDS011;67394;52.522;13.622;2023-04-28T12:01:43;7.30;;;4.78;;
78143;SDS011;67394;52.522;13.622;2023-04-28T12:04:09;10.68;;;4.95;;
78143;SDS011;67394;52.522;13.622;2023-04-28T12:06:37;9.07;;;5.13;;
78143;SDS011;67394;52.522;13.622;2023-04-28T12:09:19;6.03;;;4.70;;
78143;SDS011;67394;52.522;13.622;2023-04-28T12:12:26;7.97;;;4.95;;
78143;SDS011;67394;52.522;13.622;2023-04-28T12:17:26;8.23;;;4.90;;
78143;SDS011;67394;52.522;13.622;2023-04-28T12:20:01;9.23;;;5.13;;
78143;SDS011;67394;52.522;13.622;2023-04-28T12:22:29;7.80;;;5.28;;
78143;SDS011;67394;52.522;13.622;2023-04-28T12:27:28;6.95;;;5.05;;
78143;SDS011;67394;52.522;13.622;2023-04-28T12:29:54;10.70;;;5.22;;
78143;SDS011;67394;52.522;13.622;2023-04-28T12:32:35;8.25;;;5.40;;
78143;SDS011;67394;52.522;13.622;2023-04-28T12:35:02;6.10;;;5.07;;
78143;SDS011;67394;52.522;13.622;2023-04-28T12:37:29;10.70;;;5.05;;
78143;SDS011;67394;52.522;13.622;2023-04-28T12:39:55;9.90;;;5.68;;
78143;SDS011;67394;52.522;13.622;2023-04-28T12:42:21;11.35;;;5.40;;
78143;SDS011;67394;52.522;13.622;2023-04-28T12:44:48;6.93;;;5.00;;
78143;SDS011;67394;52.522;13.622;2023-04-28T12:47:14;6.75;;;4.88;;
78143;SDS011;67394;52.522;13.622;2023-04-28T12:49:41;7.05;;;5.50;;
78143;SDS011;67394;52.522;13.622;2023-04-28T12:52:08;9.27;;;5.13;;
78143;SDS011;67394;52.522;13.622;2023-04-28T12:54:35;6.90;;;4.53;;
78143;SDS011;67394;52.522;13.622;2023-04-28T12:59:29;7.55;;;5.47;;
78143;SDS011;67394;52.522;13.622;2023-04-28T13:01:56;9.75;;;4.97;;
78143;SDS011;67394;52.522;13.622;2023-04-28T13:04:23;7.55;;;4.72;;
78143;SDS011;67394;52.522;13.622;2023-04-28T13:09:17;8.77;;;4.53;;
78143;SDS011;67394;52.522;13.622;2023-04-28T13:11:43;7.72;;;4.97;;
78143;SDS011;67394;52.522;13.622;2023-04-28T13:14:10;7.68;;;5.35;;
78143;SDS011;67394;52.522;13.622;2023-04-28T13:16:36;6.40;;;4.72;;
78143;SDS011;67394;52.522;13.622;2023-04-28T14:07:31;6.68;;;5.05;;
78143;SDS011;67394;52.522;13.622;2023-04-28T14:09:58;8.70;;;5.38;;
78143;SDS011;67394;52.522;13.622;2023-04-28T14:12:24;9.65;;;4.85;;
78143;SDS011;67394;52.522;13.622;2023-04-28T14:14:50;7.90;;;4.72;;
78143;SDS011;67394;52.522;13.622;2023-04-28T14:17:17;6.65;;;4.63;;
78143;SDS011;67394;52.522;13.622;2023-04-28T14:19:46;8.65;;;5.57;;
78143;SDS011;67394;52.522;13.622;2023-04-28T14:22:12;7.68;;;5.55;;
78143;SDS011;67394;52.522;13.622;2023-04-28T14:24:40;14.15;;;8.52;;
78143;SDS011;67394;52.522;13.622;2023-04-28T14:27:06;6.65;;;4.70;;
78143;SDS011;67394;52.522;13.622;2023-04-28T14:29:33;6.78;;;5.25;;
78143;SDS011;67394;52.522;13.622;2023-04-28T14:31:59;9.98;;;5.30;;
78143;SDS011;67394;52.522;13.622;2023-04-28T14:34:25;9.88;;;5.88;;
78143;SDS011;67394;52.522;13.622;2023-04-28T14:36:52;11.20;;;5.47;;
78143;SDS011;67394;52.522;13.622;2023-04-28T14:39:18;9.82;;;5.80;;
78143;SDS011;67394;52.522;13.622;2023-04-28T14:41:54;7.65;;;5.35;;
78143;SDS011;67394;52.522;13.622;2023-04-28T14:44:20;13.80;;;6.85;;
78143;SDS011;67394;52.522;13.622;2023-04-28T14:46:46;16.33;;;8.30;;
78143;SDS011;67394;52.522;13.622;2023-04-28T14:49:13;11.05;;;6.13;;
78143;SDS011;67394;52.522;13.622;2023-04-28T14:51:39;10.70;;;5.10;;
78143;SDS011;67394;52.522;13.622;2023-04-28T14:54:06;8.93;;;4.95;;
78143;SDS011;67394;52.522;13.622;2023-04-28T14:56:34;6.40;;;4.40;;
78143;SDS011;67394;52.522;13.622;2023-04-28T14:59:00;7.55;;;4.97;;
78143;SDS011;67394;52.522;13.622;2023-04-28T15:01:26;7.30;;;5.00;;
78143;SDS011;67394;52.522;13.622;2023-04-28T15:03:53;20.52;;;7.13;;
78143;SDS011;67394;52.522;13.622;2023-04-28T15:06:19;14.25;;;8.93;;
78143;SDS011;67394;52.522;13.622;2023-04-28T15:08:46;16.15;;;9.75;;
78143;SDS011;67394;52.522;13.622;2023-04-28T15:11:12;7.78;;;5.18;;
78143;SDS011;67394;52.522;13.622;2023-04-28T15:13:38;12.23;;;7.10;;
78143;SDS011;67394;52.522;13.622;2023-04-28T15:16:08;12.30;;;7.53;;
78143;SDS011;67394;52.522;13.622;2023-04-28T15:18:34;13.35;;;7.53;;
78143;SDS011;67394;52.522;13.622;2023-04-28T15:21:01;11.05;;;6.22;;
78143;SDS011;67394;52.522;13.622;2023-04-28T15:23:27;14.02;;;6.53;;
78143;SDS011;67394;52.522;13.622;2023-04-28T15:25:54;10.80;;;5.65;;
78143;SDS011;67394;52.522;13.622;2023-04-28T15:28:20;7.82;;;5.20;;
78143;SDS011;67394;52.522;13.622;2023-04-28T15:30:46;9.95;;;5.47;;
78143;SDS011;67394;52.522;13.622;2023-04-28T15:33:13;9.32;;;4.93;;
78143;SDS011;67394;52.522;13.622;2023-04-28T15:35:39;8.15;;;5.70;;
78143;SDS011;67394;52.522;13.622;2023-04-28T15:38:06;8.55;;;5.88;;
78143;SDS011;67394;52.522;13.622;2023-04-28T15:40:32;7.80;;;5.15;;
78143;SDS011;67394;52.522;13.622;2023-04-28T15:42:58;7.75;;;4.80;;
78143;SDS011;67394;52.522;13.622;2023-04-28T15:45:25;7.45;;;5.18;;
78143;SDS011;67394;52.522;13.622;2023-04-28T15:47:51;9.48;;;5.07;;
78143;SDS011;67394;52.522;13.622;2023-04-28T15:50:18;7.45;;;5.20;;
78143;SDS011;67394;52.522;13.622;2023-04-28T15:52:46;9.43;;;4.78;;
78143;SDS011;67394;52.522;13.622;2023-04-28T15:55:13;7.95;;;4.82;;
78143;SDS011;67394;52.522;13.622;2023-04-28T15:57:41;7.65;;;4.22;;
78143;SDS011;67394;52.522;13.622;2023-04-28T16:02:35;8.80;;;5.40;;
78143;SDS011;67394;52.522;13.622;2023-04-28T16:05:03;8.55;;;6.22;;
78143;SDS011;67394;52.522;13.622;2023-04-28T16:07:30;7.60;;;5.97;;
78143;SDS011;67394;52.522;13.622;2023-04-28T16:09:56;7.38;;;5.55;;
78143;SDS011;67394;52.522;13.622;2023-04-28T16:12:23;8.25;;;5.70;;
78143;SDS011;67394;52.522;13.622;2023-04-28T16:14:49;9.88;;;6.30;;
78143;SDS011;67394;52.522;13.622;2023-04-28T16:17:16;12.30;;;6.20;;
78143;SDS011;67394;52.522;13.622;2023-04-28T16:19:42;12.40;;;6.78;;
78143;SDS011;67394;52.522;13.622;2023-04-28T16:22:08;9.32;;;7.10;;
78143;SDS011;67394;52.522;13.622;2023-04-28T16:24:35;9.02;;;5.93;;
78143;SDS011;67394;52.522;13.622;2023-04-28T16:27:01;8.35;;;5.97;;
78143;SDS011;67394;52.522;13.622;2023-04-28T16:29:27;9.70;;;5.72;;
78143;SDS011;67394;52.522;13.622;2023-04-28T16:31:56;8.02;;;6.57;;